Time;durP1;ratioP1;P1;durP2;ratioP2;P2;SDS_P1;SDS_P2;PMS_P1;PMS_P2;Temp;Humidity;BMP_temperature;BMP_pressure;BME280_temperature;BME280_humidity;BME280_pressure;Samples;Min_cycle;Max_cycle;Signal;HPM_P1;HPM_P2
2024/02/05 00:01:37;;;;;;;69.32;13.52;;;;;;;;;;4966640;28;25056;-64
2024/02/05 00:04:04;;;;;;;52.63;10.63;;;;;;;;;;4966610;28;25076;-65
2024/02/05 00:06:30;;;;;;;48.70;12.40;;;;;;;;;;4967894;28;25081;-65
2024/02/05 00:08:56;;;;;;;38.08;9.30;;;;;;;;;;4966338;28;25054;-65
2024/02/05 00:11:22;;;;;;;52.30;11.40;;;;;;;;;;4966644;28;25054;-66
2024/02/05 00:13:48;;;;;;;54.13;12.50;;;;;;;;;;4967121;28;25190;-65
2024/02/05 00:16:14;;;;;;;51.53;10.45;;;;;;;;;;4966222;28;25099;-66
2024/02/05 00:18:41;;;;;;;52.45;11.45;;;;;;;;;;4969096;28;25061;-65
2024/02/05 00:21:07;;;;;;;60.92;13.18;;;;;;;;;;4964186;28;25142;-65
2024/02/05 00:23:33;;;;;;;35.38;9.10;;;;;;;;;;4966429;28;25157;-66
2024/02/05 00:25:59;;;;;;;48.78;11.77;;;;;;;;;;4965619;28;25078;-63
2024/02/05 00:28:25;;;;;;;46.25;9.80;;;;;;;;;;4967427;28;25075;-66
2024/02/05 00:30:51;;;;;;;63.63;11.02;;;;;;;;;;4965608;28;25061;-65
2024/02/05 00:33:17;;;;;;;43.50;10.23;;;;;;;;;;4963301;28;25078;-64
2024/02/05 00:35:43;;;;;;;58.78;12.32;;;;;;;;;;4948675;28;25068;-64
2024/02/05 00:38:09;;;;;;;51.08;10.75;;;;;;;;;;4943655;28;25058;-66
2024/02/05 00:40:35;;;;;;;46.08;10.18;;;;;;;;;;4950068;28;25144;-65
2024/02/05 00:43:01;;;;;;;62.00;11.15;;;;;;;;;;4941933;28;25139;-64
2024/02/05 00:45:27;;;;;;;55.88;10.65;;;;;;;;;;4948509;28;25070;-66
2024/02/05 00:47:53;;;;;;;62.42;10.80;;;;;;;;;;4945736;28;25096;-65
2024/02/05 00:50:19;;;;;;;52.35;9.43;;;;;;;;;;4943574;28;25076;-65
2024/02/05 00:52:45;;;;;;;46.38;9.85;;;;;;;;;;4946999;28;25061;-65
2024/02/05 00:55:11;;;;;;;54.45;11.25;;;;;;;;;;4955624;28;25078;-65
2024/02/05 00:57:37;;;;;;;60.28;13.18;;;;;;;;;;4954939;28;25064;-66
2024/02/05 01:00:07;;;;;;;49.85;10.48;;;;;;;;;;4976993;28;25096;-65
2024/02/05 01:02:33;;;;;;;58.80;11.13;;;;;;;;;;4972099;28;25065;-65
2024/02/05 01:04:59;;;;;;;55.28;10.85;;;;;;;;;;4970476;28;25076;-65
2024/02/05 01:07:25;;;;;;;40.55;9.90;;;;;;;;;;4967235;28;25072;-65
2024/02/05 01:09:51;;;;;;;53.92;10.00;;;;;;;;;;4966658;28;25085;-66
2024/02/05 01:12:17;;;;;;;67.43;12.85;;;;;;;;;;4972260;28;25120;-65
2024/02/05 01:14:44;;;;;;;54.60;9.95;;;;;;;;;;4975255;28;25055;-65
2024/02/05 01:17:11;;;;;;;44.85;9.95;;;;;;;;;;4961930;28;25109;-65
2024/02/05 01:19:37;;;;;;;47.65;10.25;;;;;;;;;;4980086;28;25044;-65
2024/02/05 01:22:04;;;;;;;51.38;10.80;;;;;;;;;;4967548;28;25074;-67
2024/02/05 01:24:30;;;;;;;56.05;10.95;;;;;;;;;;4965878;28;25083;-65
2024/02/05 01:26:56;;;;;;;50.00;9.73;;;;;;;;;;4966517;28;25055;-64
2024/02/05 01:29:22;;;;;;;54.65;10.10;;;;;;;;;;4969633;28;25140;-62
2024/02/05 01:31:48;;;;;;;49.70;9.52;;;;;;;;;;4965757;28;25061;-65
2024/02/05 01:34:14;;;;;;;49.13;10.27;;;;;;;;;;4975202;28;25110;-66
2024/02/05 01:36:40;;;;;;;45.40;10.15;;;;;;;;;;4966121;28;25092;-65
2024/02/05 01:39:07;;;;;;;51.47;9.90;;;;;;;;;;4965234;28;25072;-65
2024/02/05 01:41:33;;;;;;;54.90;10.52;;;;;;;;;;4975917;28;25070;-67
2024/02/05 01:43:59;;;;;;;52.15;11.32;;;;;;;;;;4964393;28;25053;-66
2024/02/05 01:46:26;;;;;;;45.63;10.32;;;;;;;;;;4970193;28;25068;-63
2024/02/05 01:48:57;;;;;;;61.58;11.85;;;;;;;;;;4967196;28;25101;-64
2024/02/05 01:51:23;;;;;;;47.92;10.32;;;;;;;;;;4963687;28;25096;-65
2024/02/05 01:53:54;;;;;;;50.10;10.05;;;;;;;;;;4965067;28;25085;-65
2024/02/05 01:56:28;;;;;;;51.47;10.82;;;;;;;;;;4984407;28;25056;-66
2024/02/05 01:58:54;;;;;;;49.20;10.80;;;;;;;;;;4966772;28;25056;-64
2024/02/05 02:01:20;;;;;;;60.92;12.38;;;;;;;;;;4963036;28;25130;-65
2024/02/05 02:03:48;;;;;;;52.63;10.65;;;;;;;;;;4970100;28;25148;-66
2024/02/05 02:06:14;;;;;;;56.05;11.35;;;;;;;;;;4964094;28;25131;-66
2024/02/05 02:08:41;;;;;;;54.08;12.57;;;;;;;;;;4986104;28;25063;-66
2024/02/05 02:11:07;;;;;;;45.58;10.65;;;;;;;;;;4972104;28;25058;-67
2024/02/05 02:13:34;;;;;;;47.03;10.20;;;;;;;;;;4969318;28;25150;-64
2024/02/05 02:16:05;;;;;;;53.35;11.45;;;;;;;;;;4968461;28;25076;-64
2024/02/05 02:18:33;;;;;;;54.85;11.77;;;;;;;;;;4968685;28;25075;-65
2024/02/05 02:21:00;;;;;;;55.33;11.57;;;;;;;;;;4971838;28;25087;-65
2024/02/05 02:23:33;;;;;;;43.13;10.10;;;;;;;;;;4968809;28;25131;-64
2024/02/05 02:26:00;;;;;;;45.53;10.18;;;;;;;;;;4968165;28;25065;-67
2024/02/05 02:28:26;;;;;;;51.80;10.95;;;;;;;;;;4975188;28;25130;-63
2024/02/05 02:30:53;;;;;;;45.25;10.40;;;;;;;;;;4967813;28;25070;-64
2024/02/05 02:33:22;;;;;;;46.42;9.63;;;;;;;;;;4967248;28;25089;-66
2024/02/05 02:35:48;;;;;;;55.88;11.20;;;;;;;;;;4964282;28;25128;-66
2024/02/05 02:38:17;;;;;;;45.83;11.15;;;;;;;;;;4961183;28;25080;-65
2024/02/05 02:40:45;;;;;;;51.65;10.88;;;;;;;;;;4954614;28;25073;-64
2024/02/05 02:43:11;;;;;;;51.05;10.15;;;;;;;;;;4967323;28;25154;-65
2024/02/05 02:45:37;;;;;;;63.42;11.48;;;;;;;;;;4973914;28;25088;-64
2024/02/05 02:48:04;;;;;;;53.92;10.70;;;;;;;;;;4967927;28;25089;-68
2024/02/05 02:50:30;;;;;;;54.03;11.00;;;;;;;;;;4981712;28;25064;-65
2024/02/05 02:52:56;;;;;;;58.83;12.27;;;;;;;;;;4964730;28;25064;-64
2024/02/05 02:55:22;;;;;;;51.13;10.70;;;;;;;;;;4968336;28;25087;-65
2024/02/05 02:57:47;;;;;;;63.13;13.02;;;;;;;;;;4963753;28;25148;-65
2024/02/05 03:00:14;;;;;;;55.85;11.77;;;;;;;;;;4968017;28;25074;-64
2024/02/05 03:02:40;;;;;;;58.13;11.43;;;;;;;;;;4971256;28;25069;-64
2024/02/05 03:05:07;;;;;;;56.28;12.30;;;;;;;;;;4964265;28;25135;-64
2024/02/05 03:07:34;;;;;;;54.88;12.00;;;;;;;;;;4964819;28;25146;-66
2024/02/05 03:10:01;;;;;;;62.33;12.88;;;;;;;;;;4966048;28;25105;-66
2024/02/05 03:12:27;;;;;;;50.05;11.80;;;;;;;;;;4964629;28;25051;-65
2024/02/05 03:14:53;;;;;;;70.85;12.00;;;;;;;;;;4966953;28;26196;-65
2024/02/05 03:17:19;;;;;;;55.08;11.65;;;;;;;;;;4967763;28;25066;-64
2024/02/05 03:19:45;;;;;;;50.63;10.98;;;;;;;;;;4975722;28;25065;-63
2024/02/05 03:22:11;;;;;;;57.17;11.52;;;;;;;;;;4971918;28;25076;-64
2024/02/05 03:24:37;;;;;;;51.85;11.68;;;;;;;;;;4989827;28;25056;-65
2024/02/05 03:27:03;;;;;;;59.35;12.25;;;;;;;;;;4973860;28;25050;-67
2024/02/05 03:29:29;;;;;;;52.78;11.70;;;;;;;;;;4968527;28;25059;-66
2024/02/05 03:31:55;;;;;;;54.13;12.45;;;;;;;;;;4970633;28;25048;-66
2024/02/05 03:34:21;;;;;;;62.67;12.55;;;;;;;;;;4969577;28;25136;-68
2024/02/05 03:36:48;;;;;;;56.22;12.27;;;;;;;;;;4952662;28;25070;-65
2024/02/05 03:39:14;;;;;;;56.67;12.50;;;;;;;;;;4968217;28;25131;-66
2024/02/05 03:41:40;;;;;;;58.55;12.63;;;;;;;;;;4967216;28;25060;-64
2024/02/05 03:44:06;;;;;;;61.60;12.60;;;;;;;;;;4964539;28;25123;-65
2024/02/05 03:46:32;;;;;;;49.97;12.55;;;;;;;;;;4970003;28;25135;-63
2024/02/05 03:48:59;;;;;;;59.42;12.35;;;;;;;;;;4964441;28;25134;-66
2024/02/05 03:51:25;;;;;;;59.55;11.65;;;;;;;;;;4970867;28;25079;-65
2024/02/05 03:53:51;;;;;;;59.85;12.88;;;;;;;;;;4965069;28;25089;-63
2024/02/05 03:56:20;;;;;;;53.08;13.40;;;;;;;;;;4965487;28;25064;-65
2024/02/05 03:58:48;;;;;;;57.28;13.40;;;;;;;;;;4962820;28;25049;-64
2024/02/05 04:01:14;;;;;;;57.10;11.38;;;;;;;;;;4964231;28;25085;-69
2024/02/05 04:03:40;;;;;;;55.88;12.20;;;;;;;;;;4970019;28;25067;-70
2024/02/05 04:06:07;;;;;;;50.00;12.25;;;;;;;;;;4983945;28;25077;-68
2024/02/05 04:08:33;;;;;;;51.53;11.02;;;;;;;;;;4967880;28;25066;-68
2024/02/05 04:10:59;;;;;;;60.30;11.85;;;;;;;;;;4968035;28;25085;-68
2024/02/05 04:13:25;;;;;;;60.30;11.75;;;;;;;;;;4964641;28;25060;-65
2024/02/05 04:15:51;;;;;;;55.58;11.50;;;;;;;;;;4968726;28;25349;-68
2024/02/05 04:18:17;;;;;;;48.42;11.10;;;;;;;;;;4968887;28;25095;-67
2024/02/05 04:20:43;;;;;;;49.65;12.98;;;;;;;;;;4968644;28;25145;-70
2024/02/05 04:23:09;;;;;;;42.65;10.63;;;;;;;;;;4968994;28;25152;-68
2024/02/05 04:25:35;;;;;;;58.67;10.77;;;;;;;;;;4968869;28;25070;-66
2024/02/05 04:28:04;;;;;;;45.67;11.30;;;;;;;;;;4967382;28;25153;-68
2024/02/05 04:30:32;;;;;;;43.53;10.07;;;;;;;;;;4965632;28;25050;-69
2024/02/05 04:32:59;;;;;;;49.42;10.75;;;;;;;;;;4966746;28;25043;-66
2024/02/05 04:35:25;;;;;;;55.00;11.38;;;;;;;;;;4965394;28;25057;-67
2024/02/05 04:37:51;;;;;;;43.60;11.18;;;;;;;;;;4971009;28;25052;-65
2024/02/05 04:40:17;;;;;;;44.90;9.88;;;;;;;;;;4970851;28;25060;-68
2024/02/05 04:42:43;;;;;;;49.50;10.88;;;;;;;;;;4982943;28;25098;-65
2024/02/05 04:45:09;;;;;;;52.45;11.23;;;;;;;;;;4965316;28;25094;-66
2024/02/05 04:47:35;;;;;;;48.17;11.18;;;;;;;;;;4979127;28;25069;-68
2024/02/05 04:50:01;;;;;;;49.70;12.32;;;;;;;;;;4967080;28;25130;-69
2024/02/05 04:52:27;;;;;;;53.17;11.85;;;;;;;;;;4964583;28;25140;-66
2024/02/05 04:54:53;;;;;;;45.80;10.77;;;;;;;;;;4952352;28;25118;-67
2024/02/05 04:57:19;;;;;;;50.47;10.48;;;;;;;;;;4966987;28;25103;-67
2024/02/05 04:59:45;;;;;;;58.63;11.95;;;;;;;;;;4967501;28;25092;-68
2024/02/05 05:02:11;;;;;;;43.35;10.57;;;;;;;;;;4965956;28;25075;-66
2024/02/05 05:04:41;;;;;;;45.30;10.75;;;;;;;;;;4951075;28;25078;-66
2024/02/05 05:07:07;;;;;;;60.15;12.48;;;;;;;;;;4953183;28;25058;-67
2024/02/05 05:09:33;;;;;;;46.05;11.18;;;;;;;;;;4969928;28;25154;-67
2024/02/05 05:11:58;;;;;;;55.30;12.43;;;;;;;;;;4991270;28;25117;-66
2024/02/05 05:14:24;;;;;;;45.83;9.85;;;;;;;;;;4966483;28;25069;-66
2024/02/05 05:16:50;;;;;;;44.17;11.02;;;;;;;;;;4963564;28;25146;-67
2024/02/05 05:19:17;;;;;;;57.35;11.75;;;;;;;;;;4955715;28;25123;-65
2024/02/05 05:21:43;;;;;;;48.88;10.68;;;;;;;;;;4975465;28;25094;-67
2024/02/05 05:24:10;;;;;;;50.75;11.15;;;;;;;;;;4965838;28;25174;-66
2024/02/05 05:26:37;;;;;;;53.05;10.95;;;;;;;;;;4974525;28;25139;-65
2024/02/05 05:29:04;;;;;;;46.60;10.80;;;;;;;;;;4972528;28;25106;-68
2024/02/05 05:31:30;;;;;;;47.55;11.00;;;;;;;;;;4978717;28;25144;-67
2024/02/05 05:33:56;;;;;;;54.63;11.18;;;;;;;;;;4970347;28;25054;-66
2024/02/05 05:36:23;;;;;;;47.75;10.07;;;;;;;;;;4964052;28;25058;-67
2024/02/05 05:38:49;;;;;;;41.17;10.10;;;;;;;;;;4968748;28;25101;-67
2024/02/05 05:41:15;;;;;;;45.78;10.35;;;;;;;;;;4973366;28;25074;-66
2024/02/05 05:43:41;;;;;;;56.58;10.18;;;;;;;;;;4969001;28;25062;-66
2024/02/05 05:46:07;;;;;;;42.20;10.35;;;;;;;;;;4981976;28;25073;-66
2024/02/05 05:48:33;;;;;;;56.63;11.27;;;;;;;;;;4994967;28;25058;-67
2024/02/05 05:50:59;;;;;;;44.05;10.57;;;;;;;;;;4988840;28;25074;-68
2024/02/05 05:53:25;;;;;;;51.75;9.65;;;;;;;;;;4964549;28;25158;-67
2024/02/05 05:55:52;;;;;;;45.10;10.32;;;;;;;;;;4962502;28;25061;-66
2024/02/05 05:58:19;;;;;;;55.28;12.23;;;;;;;;;;4971272;28;25090;-65
2024/02/05 06:00:45;;;;;;;43.90;9.68;;;;;;;;;;4970309;28;25102;-68
2024/02/05 06:03:13;;;;;;;57.03;11.93;;;;;;;;;;4965050;28;25072;-65
2024/02/05 06:05:39;;;;;;;53.85;11.23;;;;;;;;;;4964576;28;25053;-64
2024/02/05 06:08:05;;;;;;;53.22;10.07;;;;;;;;;;4967926;28;25069;-65
2024/02/05 06:10:31;;;;;;;54.25;10.93;;;;;;;;;;4968663;28;25166;-63
2024/02/05 06:12:59;;;;;;;50.05;10.85;;;;;;;;;;4965403;28;25096;-65
2024/02/05 06:15:25;;;;;;;48.10;10.90;;;;;;;;;;4969982;28;25088;-62
2024/02/05 06:17:51;;;;;;;51.03;10.40;;;;;;;;;;4969082;28;25063;-66
2024/02/05 06:20:17;;;;;;;50.10;11.88;;;;;;;;;;4966487;28;25081;-64
2024/02/05 06:22:43;;;;;;;50.03;12.32;;;;;;;;;;4963902;28;25135;-66
2024/02/05 06:25:09;;;;;;;56.90;12.23;;;;;;;;;;4964541;28;25083;-63
2024/02/05 06:27:35;;;;;;;56.60;11.27;;;;;;;;;;4971432;28;25150;-64
2024/02/05 06:30:01;;;;;;;62.22;11.50;;;;;;;;;;4941969;28;25078;-64
2024/02/05 06:32:27;;;;;;;60.63;12.25;;;;;;;;;;4969835;28;25159;-65
2024/02/05 06:34:53;;;;;;;53.05;12.48;;;;;;;;;;4951441;28;25067;-67
2024/02/05 06:37:19;;;;;;;52.88;11.18;;;;;;;;;;4965787;28;25049;-66
2024/02/05 06:39:45;;;;;;;52.70;11.27;;;;;;;;;;4967264;28;25151;-64
2024/02/05 06:42:11;;;;;;;66.05;12.10;;;;;;;;;;4965651;28;25078;-65
2024/02/05 06:44:37;;;;;;;52.53;11.13;;;;;;;;;;4955135;28;25051;-66
2024/02/05 06:47:04;;;;;;;57.85;10.38;;;;;;;;;;4969429;28;25189;-63
2024/02/05 06:49:30;;;;;;;61.70;11.77;;;;;;;;;;4958623;28;25130;-65
2024/02/05 06:51:55;;;;;;;50.92;10.40;;;;;;;;;;4972757;28;25054;-65
2024/02/05 06:54:21;;;;;;;66.43;13.45;;;;;;;;;;4965166;28;25058;-65
2024/02/05 06:56:47;;;;;;;54.03;11.43;;;;;;;;;;4959246;28;25096;-64
2024/02/05 06:59:14;;;;;;;68.28;13.68;;;;;;;;;;4967185;28;25074;-69
2024/02/05 07:01:40;;;;;;;49.65;11.00;;;;;;;;;;4974016;28;25084;-65
2024/02/05 07:04:06;;;;;;;51.92;12.50;;;;;;;;;;4969091;28;25083;-65
2024/02/05 07:06:32;;;;;;;59.60;12.10;;;;;;;;;;4972676;28;25067;-65
2024/02/05 07:08:57;;;;;;;48.53;9.82;;;;;;;;;;4968978;28;25053;-66
2024/02/05 07:11:23;;;;;;;53.85;11.45;;;;;;;;;;4966610;28;25072;-64
2024/02/05 07:13:49;;;;;;;56.38;9.65;;;;;;;;;;4966491;28;25085;-62
2024/02/05 07:16:17;;;;;;;45.83;11.10;;;;;;;;;;4967600;28;25096;-66
2024/02/05 07:18:43;;;;;;;48.95;11.27;;;;;;;;;;4967197;28;25092;-63
2024/02/05 07:21:09;;;;;;;62.90;12.75;;;;;;;;;;4969522;28;25076;-65
2024/02/05 07:23:35;;;;;;;54.28;11.32;;;;;;;;;;4966408;28;25083;-67
2024/02/05 07:26:02;;;;;;;54.00;10.95;;;;;;;;;;4961064;28;25062;-66
2024/02/05 07:28:28;;;;;;;52.17;11.57;;;;;;;;;;4967169;28;25075;-64
2024/02/05 07:30:55;;;;;;;53.00;12.43;;;;;;;;;;4964051;28;25064;-66
2024/02/05 07:33:21;;;;;;;56.45;12.60;;;;;;;;;;4972384;28;25104;-68
2024/02/05 07:35:47;;;;;;;57.85;11.88;;;;;;;;;;4966484;28;25104;-65
2024/02/05 07:38:13;;;;;;;50.22;10.57;;;;;;;;;;4968040;28;25072;-64
2024/02/05 07:40:38;;;;;;;50.17;12.07;;;;;;;;;;4967155;28;25076;-64
2024/02/05 07:43:04;;;;;;;52.28;10.43;;;;;;;;;;4967635;28;25051;-67
2024/02/05 07:45:30;;;;;;;61.85;12.10;;;;;;;;;;4966626;28;25078;-66
2024/02/05 07:47:57;;;;;;;58.40;12.82;;;;;;;;;;4965791;28;25073;-66
2024/02/05 07:50:22;;;;;;;64.85;13.80;;;;;;;;;;4963068;28;25075;-65
2024/02/05 07:52:49;;;;;;;44.58;10.75;;;;;;;;;;4942174;28;25056;-64
2024/02/05 07:55:15;;;;;;;52.95;11.43;;;;;;;;;;4967123;28;25069;-63
2024/02/05 07:57:41;;;;;;;58.13;11.63;;;;;;;;;;4969144;28;25072;-67
2024/02/05 08:00:07;;;;;;;54.85;12.40;;;;;;;;;;4967841;28;25062;-65
2024/02/05 08:02:34;;;;;;;52.42;11.68;;;;;;;;;;4969256;28;25079;-66
2024/02/05 08:05:00;;;;;;;50.42;11.65;;;;;;;;;;4966294;28;25057;-63
2024/02/05 08:07:26;;;;;;;54.13;11.30;;;;;;;;;;4967562;28;25068;-65
2024/02/05 08:09:52;;;;;;;42.13;9.80;;;;;;;;;;4987112;28;25084;-66
2024/02/05 08:12:18;;;;;;;43.33;10.48;;;;;;;;;;4989896;28;25074;-65
2024/02/05 08:14:46;;;;;;;55.83;11.18;;;;;;;;;;4980840;28;25078;-67
2024/02/05 08:17:12;;;;;;;53.13;11.20;;;;;;;;;;4973290;28;25100;-64
2024/02/05 08:19:38;;;;;;;54.17;12.13;;;;;;;;;;4973392;28;25088;-64
2024/02/05 08:22:04;;;;;;;38.45;9.82;;;;;;;;;;4968564;28;25057;-66
2024/02/05 08:24:30;;;;;;;54.10;11.30;;;;;;;;;;4966786;28;25066;-64
2024/02/05 08:26:56;;;;;;;42.38;10.75;;;;;;;;;;4962068;28;25061;-66
2024/02/05 08:29:22;;;;;;;56.78;10.68;;;;;;;;;;4969833;28;25076;-64
2024/02/05 08:31:49;;;;;;;58.97;11.30;;;;;;;;;;4967175;28;25102;-64
2024/02/05 08:34:15;;;;;;;63.97;11.30;;;;;;;;;;4968276;28;25072;-65
2024/02/05 08:36:41;;;;;;;43.83;11.48;;;;;;;;;;4961052;28;25133;-64
2024/02/05 08:39:09;;;;;;;56.42;11.43;;;;;;;;;;4942949;28;25074;-65
2024/02/05 08:41:35;;;;;;;47.85;11.27;;;;;;;;;;4953844;28;25072;-67
2024/02/05 08:44:02;;;;;;;48.45;12.73;;;;;;;;;;4965779;28;25096;-63
2024/02/05 08:46:28;;;;;;;47.17;11.95;;;;;;;;;;4953335;28;25063;-62
2024/02/05 08:48:54;;;;;;;64.45;13.07;;;;;;;;;;4969987;28;25103;-67
2024/02/05 08:51:20;;;;;;;50.08;13.00;;;;;;;;;;4970936;28;25096;-65
2024/02/05 08:53:46;;;;;;;50.30;15.00;;;;;;;;;;4967731;28;25073;-65
2024/02/05 08:56:13;;;;;;;56.63;15.13;;;;;;;;;;4965149;28;25174;-65
2024/02/05 08:58:39;;;;;;;62.45;14.95;;;;;;;;;;4967635;28;25078;-66
2024/02/05 09:01:05;;;;;;;59.92;14.68;;;;;;;;;;4969219;28;25092;-64
2024/02/05 09:03:31;;;;;;;46.72;14.60;;;;;;;;;;4969130;28;25087;-65
2024/02/05 09:05:57;;;;;;;59.08;13.32;;;;;;;;;;4969045;28;25114;-64
2024/02/05 09:08:23;;;;;;;48.70;13.38;;;;;;;;;;4970850;28;25131;-63
2024/02/05 09:10:49;;;;;;;44.35;12.75;;;;;;;;;;4971349;28;25058;-62
2024/02/05 09:13:15;;;;;;;42.92;13.82;;;;;;;;;;4971197;28;25148;-65
2024/02/05 09:15:42;;;;;;;54.42;13.65;;;;;;;;;;4970082;28;25317;-64
2024/02/05 09:18:08;;;;;;;43.58;13.57;;;;;;;;;;4961297;28;25071;-64
2024/02/05 09:20:34;;;;;;;47.25;12.57;;;;;;;;;;4963637;28;25066;-64
2024/02/05 09:23:00;;;;;;;46.47;13.75;;;;;;;;;;4965871;28;25165;-63
2024/02/05 09:25:26;;;;;;;63.78;14.15;;;;;;;;;;4970230;28;25151;-64
2024/02/05 09:27:52;;;;;;;41.47;11.82;;;;;;;;;;4969386;28;25093;-65
2024/02/05 09:30:21;;;;;;;47.15;13.10;;;;;;;;;;4971450;28;25149;-67
2024/02/05 09:32:47;;;;;;;43.83;11.43;;;;;;;;;;4964445;28;25113;-64
2024/02/05 09:35:13;;;;;;;36.95;11.35;;;;;;;;;;4949011;28;25139;-65
2024/02/05 09:37:39;;;;;;;40.25;11.52;;;;;;;;;;4943718;28;25075;-65
2024/02/05 09:40:05;;;;;;;42.95;10.95;;;;;;;;;;4963738;28;25056;-65
2024/02/05 09:42:31;;;;;;;48.30;11.77;;;;;;;;;;4965567;28;25062;-64
2024/02/05 09:44:57;;;;;;;36.55;10.23;;;;;;;;;;4980333;28;25065;-66
2024/02/05 09:47:24;;;;;;;50.60;13.10;;;;;;;;;;4968195;28;25083;-66
2024/02/05 09:49:50;;;;;;;37.50;9.55;;;;;;;;;;4968403;28;25155;-65
2024/02/05 09:52:16;;;;;;;42.40;10.50;;;;;;;;;;4968308;28;25073;-66
2024/02/05 09:54:43;;;;;;;42.58;11.10;;;;;;;;;;4965544;28;25092;-66
2024/02/05 09:57:10;;;;;;;45.00;9.70;;;;;;;;;;4964056;28;25081;-65
2024/02/05 09:59:36;;;;;;;43.78;10.82;;;;;;;;;;4968802;28;25085;-66
2024/02/05 10:02:06;;;;;;;52.30;10.43;;;;;;;;;;4992360;28;25176;-69
2024/02/05 10:04:37;;;;;;;54.20;10.85;;;;;;;;;;4969588;28;25059;-66
2024/02/05 10:07:03;;;;;;;40.85;10.60;;;;;;;;;;4969925;28;25093;-66
2024/02/05 10:09:30;;;;;;;40.35;11.98;;;;;;;;;;4965173;28;25061;-65
2024/02/05 10:11:57;;;;;;;42.47;10.50;;;;;;;;;;4957852;28;25061;-68
2024/02/05 10:14:25;;;;;;;39.42;9.77;;;;;;;;;;4972373;28;25054;-65
2024/02/05 10:16:52;;;;;;;49.28;10.95;;;;;;;;;;4969279;28;25105;-69
2024/02/05 10:19:18;;;;;;;35.40;10.30;;;;;;;;;;4969452;28;25062;-68
2024/02/05 10:21:44;;;;;;;35.38;8.95;;;;;;;;;;4973792;28;25149;-69
2024/02/05 10:24:14;;;;;;;45.72;9.75;;;;;;;;;;4968451;28;25078;-67
2024/02/05 10:26:40;;;;;;;34.05;10.10;;;;;;;;;;4968560;28;25053;-66
2024/02/05 10:29:07;;;;;;;44.15;9.57;;;;;;;;;;4972128;28;25048;-68
2024/02/05 10:31:33;;;;;;;45.58;9.68;;;;;;;;;;4972285;28;25062;-67
2024/02/05 10:33:59;;;;;;;59.10;11.07;;;;;;;;;;4976224;28;25149;-68
2024/02/05 10:36:25;;;;;;;42.10;9.60;;;;;;;;;;4973627;28;25053;-68
2024/02/05 10:38:51;;;;;;;54.30;10.88;;;;;;;;;;4972479;28;25140;-68
2024/02/05 10:41:17;;;;;;;36.17;9.95;;;;;;;;;;4970861;28;25059;-69
2024/02/05 10:43:44;;;;;;;38.20;11.70;;;;;;;;;;4971321;28;25054;-69
2024/02/05 10:46:10;;;;;;;42.63;10.13;;;;;;;;;;4952193;28;25078;-70
2024/02/05 10:48:36;;;;;;;48.30;10.35;;;;;;;;;;4955693;28;25047;-67
2024/02/05 10:51:03;;;;;;;52.95;10.27;;;;;;;;;;4967760;28;25662;-68
2024/02/05 10:53:29;;;;;;;43.58;10.60;;;;;;;;;;4969482;28;25092;-69
2024/02/05 10:56:01;;;;;;;58.30;11.63;;;;;;;;;;4968700;28;25153;-70
2024/02/05 10:58:27;;;;;;;43.47;10.82;;;;;;;;;;4972387;28;25083;-66
2024/02/05 11:00:56;;;;;;;45.00;11.13;;;;;;;;;;4968870;28;25104;-69
2024/02/05 11:03:22;;;;;;;44.90;10.20;;;;;;;;;;4978502;28;25065;-69
2024/02/05 11:05:54;;;;;;;42.38;10.13;;;;;;;;;;4968783;28;25083;-68
2024/02/05 11:08:20;;;;;;;36.20;10.73;;;;;;;;;;4966938;28;25054;-68
2024/02/05 11:10:49;;;;;;;49.38;10.93;;;;;;;;;;4973697;28;25070;-69
2024/02/05 11:13:21;;;;;;;39.08;10.32;;;;;;;;;;4989227;28;25105;-68
2024/02/05 11:15:47;;;;;;;41.47;10.40;;;;;;;;;;4967992;28;25077;-68
2024/02/05 11:18:16;;;;;;;50.55;9.48;;;;;;;;;;4967983;28;25107;-67
2024/02/05 11:20:44;;;;;;;43.30;9.35;;;;;;;;;;4968375;28;25076;-65
2024/02/05 11:23:10;;;;;;;46.90;9.70;;;;;;;;;;4967445;28;25054;-67
2024/02/05 11:25:36;;;;;;;33.70;9.65;;;;;;;;;;4968469;28;25082;-69
2024/02/05 11:28:05;;;;;;;33.47;9.55;;;;;;;;;;4967063;28;25086;-66
2024/02/05 11:30:31;;;;;;;45.90;10.27;;;;;;;;;;4962744;28;25100;-66
2024/02/05 11:32:57;;;;;;;48.40;10.13;;;;;;;;;;4969003;28;25137;-66
2024/02/05 11:35:32;;;;;;;38.92;8.10;;;;;;;;;;4973856;28;25080;-66
2024/02/05 11:38:05;;;;;;;32.88;8.48;;;;;;;;;;4967737;28;25065;-68
2024/02/05 11:40:31;;;;;;;44.13;9.77;;;;;;;;;;4974049;28;25077;-69
2024/02/05 11:43:04;;;;;;;45.13;10.60;;;;;;;;;;4971833;28;25133;-68
2024/02/05 11:45:31;;;;;;;32.60;7.53;;;;;;;;;;4956972;28;25104;-69
2024/02/05 11:47:59;;;;;;;41.95;10.32;;;;;;;;;;4963162;28;25075;-69
2024/02/05 11:50:25;;;;;;;38.28;9.40;;;;;;;;;;4973581;28;25068;-69
2024/02/05 11:52:51;;;;;;;43.90;9.50;;;;;;;;;;4967464;28;25073;-71
2024/02/05 11:55:17;;;;;;;36.42;8.40;;;;;;;;;;4971551;28;25038;-64
2024/02/05 11:57:43;;;;;;;36.30;7.20;;;;;;;;;;4971683;28;25086;-68
2024/02/05 12:00:11;;;;;;;51.67;10.02;;;;;;;;;;4975677;28;25058;-64
2024/02/05 12:02:37;;;;;;;49.28;10.05;;;;;;;;;;4973270;28;25117;-72
2024/02/05 12:05:04;;;;;;;27.67;8.57;;;;;;;;;;4971608;28;25076;-68
2024/02/05 12:07:30;;;;;;;39.95;8.23;;;;;;;;;;4955094;28;25143;-69
2024/02/05 12:09:57;;;;;;;34.63;9.10;;;;;;;;;;4979138;28;25061;-68
2024/02/05 12:12:24;;;;;;;48.55;9.15;;;;;;;;;;4974698;28;25070;-68
2024/02/05 12:14:50;;;;;;;33.00;8.80;;;;;;;;;;4971468;28;25080;-67
2024/02/05 12:17:19;;;;;;;35.63;8.73;;;;;;;;;;4978676;28;25063;-70
2024/02/05 12:19:45;;;;;;;38.28;8.30;;;;;;;;;;4969572;28;25068;-71
2024/02/05 12:22:12;;;;;;;38.42;9.18;;;;;;;;;;4970543;28;25062;-66
2024/02/05 12:24:38;;;;;;;49.55;10.25;;;;;;;;;;4979392;28;25160;-68
2024/02/05 12:27:04;;;;;;;39.40;8.65;;;;;;;;;;4968711;28;25155;-67
2024/02/05 12:29:30;;;;;;;36.00;9.40;;;;;;;;;;4974245;28;25167;-70
2024/02/05 12:32:23;;;;;;;40.65;9.00;;;;;;;;;;4974664;28;25100;-67
2024/02/05 12:34:49;;;;;;;43.97;10.15;;;;;;;;;;4966700;28;25069;-66
2024/02/05 12:37:15;;;;;;;39.42;9.02;;;;;;;;;;4970189;28;25064;-68
2024/02/05 12:39:45;;;;;;;30.63;7.75;;;;;;;;;;4985675;28;25063;-70
2024/02/05 12:42:11;;;;;;;35.03;7.30;;;;;;;;;;4976025;28;25165;-67
2024/02/05 12:44:37;;;;;;;36.47;8.10;;;;;;;;;;4973397;28;25065;-69
2024/02/05 12:47:03;;;;;;;32.03;7.05;;;;;;;;;;4965830;28;25102;-67
2024/02/05 12:49:29;;;;;;;38.70;9.00;;;;;;;;;;4967955;28;25081;-67
2024/02/05 12:51:55;;;;;;;40.45;9.32;;;;;;;;;;4954487;28;25059;-68
2024/02/05 12:54:22;;;;;;;36.25;9.52;;;;;;;;;;4976012;28;25051;-67
2024/02/05 12:56:49;;;;;;;46.13;9.90;;;;;;;;;;4973075;28;25146;-71
2024/02/05 12:59:15;;;;;;;37.38;8.88;;;;;;;;;;4978644;28;25074;-69
2024/02/05 13:01:41;;;;;;;38.08;9.75;;;;;;;;;;4979147;28;25059;-68
2024/02/05 13:04:08;;;;;;;49.60;9.68;;;;;;;;;;4972841;28;25076;-69
2024/02/05 13:06:34;;;;;;;54.60;10.43;;;;;;;;;;4976444;28;25081;-68
2024/02/05 13:09:00;;;;;;;38.92;8.70;;;;;;;;;;4973391;28;25078;-68
2024/02/05 13:11:30;;;;;;;32.13;7.78;;;;;;;;;;4970413;28;25091;-70
2024/02/05 13:13:56;;;;;;;41.63;9.13;;;;;;;;;;4980382;28;25078;-70
2024/02/05 13:16:22;;;;;;;30.98;8.25;;;;;;;;;;4968111;28;25060;-70
2024/02/05 13:18:48;;;;;;;34.15;7.40;;;;;;;;;;4971069;28;25074;-67
2024/02/05 13:21:14;;;;;;;37.92;7.85;;;;;;;;;;4971805;28;25078;-67
2024/02/05 13:23:40;;;;;;;38.97;7.97;;;;;;;;;;4973452;28;25097;-66
2024/02/05 13:26:06;;;;;;;30.45;7.07;;;;;;;;;;4971306;28;25081;-68
2024/02/05 13:28:32;;;;;;;28.02;9.52;;;;;;;;;;4967294;28;25062;-68
2024/02/05 13:30:58;;;;;;;33.63;7.78;;;;;;;;;;4960393;28;25056;-70
2024/02/05 13:33:24;;;;;;;37.00;8.43;;;;;;;;;;4965910;28;25060;-66
2024/02/05 13:35:50;;;;;;;34.95;7.65;;;;;;;;;;4963431;28;25151;-65
2024/02/05 13:38:16;;;;;;;38.67;7.70;;;;;;;;;;4965472;28;25078;-67
2024/02/05 13:40:42;;;;;;;37.05;8.43;;;;;;;;;;4963945;28;25153;-71
2024/02/05 13:43:08;;;;;;;28.15;7.05;;;;;;;;;;4969568;28;25112;-69
2024/02/05 13:45:35;;;;;;;34.83;7.25;;;;;;;;;;4974911;28;25086;-68
2024/02/05 13:48:01;;;;;;;27.25;7.35;;;;;;;;;;4968730;28;25069;-68
2024/02/05 13:50:27;;;;;;;29.55;6.10;;;;;;;;;;4955346;28;25157;-68
2024/02/05 13:52:56;;;;;;;31.10;6.45;;;;;;;;;;4951531;28;25062;-66
2024/02/05 13:55:22;;;;;;;34.33;6.90;;;;;;;;;;4948607;28;25105;-66
2024/02/05 13:57:48;;;;;;;33.83;6.32;;;;;;;;;;4967739;28;25046;-65
2024/02/05 14:00:14;;;;;;;25.70;6.22;;;;;;;;;;4968460;28;25110;-68
2024/02/05 14:02:41;;;;;;;26.45;6.60;;;;;;;;;;4974730;28;25105;-68
2024/02/05 14:05:07;;;;;;;27.08;6.78;;;;;;;;;;4969400;28;25110;-71
2024/02/05 14:07:33;;;;;;;24.23;6.70;;;;;;;;;;4970997;28;25050;-69
2024/02/05 14:09:59;;;;;;;32.03;6.57;;;;;;;;;;4968811;28;25138;-68
2024/02/05 14:12:26;;;;;;;30.77;7.03;;;;;;;;;;4968668;28;25060;-69
2024/02/05 14:14:52;;;;;;;26.48;5.68;;;;;;;;;;4967637;28;25209;-66
2024/02/05 14:17:18;;;;;;;27.95;6.70;;;;;;;;;;4970233;28;25063;-69